Time;durP1;ratioP1;P1;durP2;ratioP2;P2;SDS_P1;SDS_P2;PMS_P1;PMS_P2;Temp;Humidity;BMP_temperature;BMP_pressure;BME280_temperature;BME280_humidity;BME280_pressure;Samples;Min_cycle;Max_cycle;Signal;HPM_P1;HPM_P2
2022/05/24 00:00:30;;;;;;;8.75;6.35;;;13.20;91.40;;;;;;5040393;28;20373;-81
2022/05/24 00:02:56;;;;;;;7.90;5.35;;;13.10;91.40;;;;;;5022892;28;20041;-81
2022/05/24 00:05:23;;;;;;;8.05;5.55;;;13.20;91.00;;;;;;5022583;28;20055;-77
2022/05/24 00:07:49;;;;;;;10.35;5.78;;;13.20;91.00;;;;;;5022633;28;20091;-78
2022/05/24 00:10:22;;;;;;;8.93;5.53;;;13.20;90.80;;;;;;5039482;28;20041;-81
2022/05/24 00:12:47;;;;;;;5.40;4.85;;;13.10;90.90;;;;;;5039181;28;20041;-77
2022/05/24 00:15:29;;;;;;;7.55;5.78;;;13.00;90.90;;;;;;5039265;28;20132;-80
2022/05/24 00:17:57;;;;;;;6.85;5.80;;;13.00;90.80;;;;;;5039423;28;20420;-79
2022/05/24 00:20:26;;;;;;;7.25;5.80;;;12.90;91.00;;;;;;5039581;28;20037;-77
2022/05/24 00:22:52;;;;;;;9.43;5.88;;;12.90;91.00;;;;;;5022970;28;20513;-77
2022/05/24 00:25:19;;;;;;;9.82;5.65;;;12.80;91.10;;;;;;5039400;28;20070;-77
2022/05/24 00:27:45;;;;;;;8.20;6.03;;;12.80;91.20;;;;;;5039631;28;20044;-79
2022/05/24 00:30:12;;;;;;;10.73;6.50;;;12.70;91.30;;;;;;5039415;28;20046;-78
2022/05/24 00:32:38;;;;;;;12.57;6.47;;;12.80;91.10;;;;;;5023019;28;20051;-79
2022/05/24 00:35:04;;;;;;;9.90;7.03;;;12.70;91.30;;;;;;5023007;28;20041;-80
2022/05/24 00:37:31;;;;;;;8.23;6.90;;;12.60;91.60;;;;;;5023559;28;20400;-80
2022/05/24 00:39:57;;;;;;;8.07;7.03;;;12.60;91.60;;;;;;5039325;28;20046;-81
2022/05/24 00:42:27;;;;;;;9.20;7.53;;;12.50;91.70;;;;;;5039275;28;20073;-79
2022/05/24 00:45:17;;;;;;;12.77;7.57;;;12.60;91.60;;;;;;5038651;28;20555;-76
2022/05/24 00:47:58;;;;;;;11.63;7.70;;;12.60;91.70;;;;;;5038963;28;20120;-81
2022/05/24 00:50:39;;;;;;;14.13;8.63;;;12.60;92.20;;;;;;5039190;28;20079;-80
2022/05/24 00:53:29;;;;;;;12.00;8.20;;;12.50;92.10;;;;;;5038957;28;20037;-76
2022/05/24 00:56:08;;;;;;;11.52;9.18;;;12.50;92.40;;;;;;5035353;28;20066;-77
2022/05/24 00:58:45;;;;;;;12.13;10.60;;;12.60;92.30;;;;;;5035324;28;20060;-80
2022/05/24 01:01:35;;;;;;;14.10;10.07;;;12.60;92.40;;;;;;5018574;28;20096;-77
2022/05/24 01:04:01;;;;;;;13.73;9.73;;;12.60;92.40;;;;;;5011422;28;20054;-80
2022/05/24 01:06:28;;;;;;;13.00;10.68;;;12.70;92.60;;;;;;5019000;28;20041;-78
2022/05/24 01:08:57;;;;;;;12.07;10.13;;;12.70;93.00;;;;;;5035361;28;20073;-75
2022/05/24 01:11:23;;;;;;;14.75;10.35;;;12.70;92.90;;;;;;5035501;28;20037;-79
2022/05/24 01:13:51;;;;;;;12.68;11.38;;;12.70;92.90;;;;;;5035365;28;20045;-79
2022/05/24 01:16:17;;;;;;;12.63;9.98;;;12.70;92.90;;;;;;5035009;28;20478;-79
2022/05/24 01:18:43;;;;;;;16.63;10.77;;;12.70;92.80;;;;;;5018899;28;20084;-81
2022/05/24 01:21:13;;;;;;;17.20;11.57;;;12.80;93.20;;;;;;5018780;28;20048;-80
2022/05/24 01:24:07;;;;;;;16.95;11.50;;;12.80;93.10;;;;;;5035174;28;20549;-78
2022/05/24 01:26:33;;;;;;;13.57;10.25;;;12.80;93.20;;;;;;5035142;28;20048;-79
2022/05/24 01:29:03;;;;;;;14.50;10.85;;;12.90;92.90;;;;;;5034983;28;20463;-83
2022/05/24 01:37:01;;;;;;;12.02;10.02;;;13.00;93.30;;;;;;5034719;28;20052;-76
2022/05/24 01:39:27;;;;;;;15.80;10.07;;;13.00;93.40;;;;;;5018403;28;20049;-78
2022/05/24 01:41:53;;;;;;;15.30;10.85;;;13.00;93.80;;;;;;5001915;28;20132;-78
2022/05/24 01:44:25;;;;;;;16.60;11.60;;;13.00;93.20;;;;;;5034430;28;20124;-81
2022/05/24 01:46:51;;;;;;;17.65;12.43;;;13.00;93.40;;;;;;5034698;28;20473;-79
2022/05/24 01:49:29;;;;;;;14.68;11.52;;;13.00;93.00;;;;;;5017966;28;20038;-79
2022/05/24 01:52:19;;;;;;;17.38;12.05;;;13.10;92.70;;;;;;5017648;28;20037;-80
2022/05/24 01:54:57;;;;;;;17.00;12.55;;;13.10;92.80;;;;;;5017682;28;20509;-78
2022/05/24 01:57:33;;;;;;;18.23;13.43;;;13.10;92.80;;;;;;5033973;28;20095;-81
2022/05/24 02:00:02;;;;;;;18.98;13.68;;;13.20;92.90;;;;;;5034086;28;20081;-77
2022/05/24 02:02:28;;;;;;;17.60;13.27;;;13.20;92.90;;;;;;5034383;28;20045;-78
2022/05/24 02:04:54;;;;;;;19.95;14.35;;;13.20;93.20;;;;;;5034041;28;20355;-78
2022/05/24 02:07:23;;;;;;;20.33;14.85;;;13.20;93.10;;;;;;5034279;28;20048;-79
2022/05/24 02:09:52;;;;;;;25.02;18.20;;;13.30;93.20;;;;;;5034275;28;20474;-79
2022/05/24 02:12:35;;;;;;;23.48;18.52;;;13.30;93.80;;;;;;5034720;28;20385;-80
2022/05/24 02:15:23;;;;;;;34.58;22.30;;;13.30;93.90;;;;;;5034105;28;20049;-82
2022/05/24 02:17:58;;;;;;;31.10;21.55;;;13.20;93.90;;;;;;5034078;28;20047;-80
2022/05/24 02:20:29;;;;;;;34.72;24.75;;;13.30;93.90;;;;;;5033044;28;20059;-77
2022/05/24 02:22:55;;;;;;;36.47;25.73;;;13.30;94.10;;;;;;5033931;28;20037;-79
2022/05/24 02:25:42;;;;;;;39.28;24.55;;;13.30;93.70;;;;;;5033639;28;20049;-77
2022/05/24 02:28:10;;;;;;;38.45;27.48;;;13.40;93.80;;;;;;5034365;28;20526;-81
2022/05/24 02:30:52;;;;;;;42.60;29.65;;;13.40;93.80;;;;;;5033986;28;20037;-81
2022/05/24 02:33:19;;;;;;;37.22;25.92;;;13.40;94.10;;;;;;5033879;28;20068;-80
2022/05/24 02:35:46;;;;;;;40.42;29.55;;;13.40;94.00;;;;;;5016934;28;20045;-78
2022/05/24 02:38:12;;;;;;;34.97;27.65;;;13.50;93.50;;;;;;5017152;28;20053;-83
2022/05/24 02:43:22;;;;;;;33.17;21.85;;;13.50;93.20;;;;;;5033931;28;20103;-77
2022/05/24 02:45:48;;;;;;;35.38;25.90;;;13.50;93.40;;;;;;5017557;28;20045;-78
2022/05/24 02:48:14;;;;;;;32.67;24.90;;;13.60;93.20;;;;;;5033777;28;20129;-77
2022/05/24 02:50:40;;;;;;;37.75;26.80;;;13.50;93.00;;;;;;5033676;28;20080;-82
2022/05/24 02:53:06;;;;;;;33.92;25.80;;;13.60;93.00;;;;;;5016795;28;20037;-80
2022/05/24 02:55:32;;;;;;;34.60;24.25;;;13.60;92.90;;;;;;5016737;28;20202;-80
2022/05/24 02:57:57;;;;;;;35.92;27.80;;;13.70;92.80;;;;;;5000367;28;20490;-81
2022/05/24 03:00:24;;;;;;;34.45;27.08;;;13.60;93.00;;;;;;5033998;28;20128;-82
2022/05/24 03:02:51;;;;;;;30.90;24.83;;;13.60;93.30;;;;;;5033722;28;20037;-82
2022/05/24 03:05:18;;;;;;;28.35;22.98;;;13.50;92.90;;;;;;5033365;28;20044;-78
2022/05/24 03:10:29;;;;;;;27.88;20.92;;;13.60;93.00;;;;;;5033141;28;20509;-80
2022/05/24 03:15:41;;;;;;;26.65;20.42;;;13.50;93.00;;;;;;5032961;28;20056;-79
2022/05/24 03:18:08;;;;;;;27.27;18.38;;;13.50;93.00;;;;;;5032903;28;20042;-77
2022/05/24 03:20:34;;;;;;;21.80;18.42;;;13.50;92.90;;;;;;5033239;28;20046;-79
2022/05/24 03:23:02;;;;;;;20.98;16.48;;;13.50;92.80;;;;;;5016884;28;20140;-79
2022/05/24 03:25:28;;;;;;;22.60;18.15;;;13.50;92.70;;;;;;5033035;28;20049;-79
2022/05/24 03:27:53;;;;;;;20.95;16.60;;;13.50;92.60;;;;;;5016349;28;20041;-81
2022/05/24 03:30:19;;;;;;;16.52;14.00;;;13.50;92.80;;;;;;5032184;28;20379;-77
2022/05/24 03:32:45;;;;;;;19.25;13.45;;;13.50;92.60;;;;;;5032879;28;20037;-80
2022/05/24 03:35:14;;;;;;;19.00;12.90;;;13.50;92.70;;;;;;5033513;28;20524;-77
2022/05/24 03:37:41;;;;;;;16.10;12.43;;;13.50;92.50;;;;;;5033499;28;20056;-78
2022/05/24 03:40:09;;;;;;;16.80;12.90;;;13.40;92.60;;;;;;5033292;28;20124;-78
2022/05/24 03:42:36;;;;;;;14.32;10.25;;;13.40;92.70;;;;;;5033432;28;20052;-77
2022/05/24 03:45:03;;;;;;;14.82;10.23;;;13.40;92.40;;;;;;5000305;28;20416;-81
2022/05/24 03:47:29;;;;;;;16.55;9.50;;;13.40;92.20;;;;;;5033236;28;20480;-78
2022/05/24 03:49:54;;;;;;;15.93;9.30;;;13.40;92.10;;;;;;5032804;28;20038;-80
2022/05/24 03:52:20;;;;;;;13.40;9.05;;;13.40;91.80;;;;;;5032051;28;20087;-80
2022/05/24 03:54:46;;;;;;;12.32;8.35;;;13.40;91.60;;;;;;5031710;28;20053;-78
2022/05/24 03:59:55;;;;;;;11.85;7.97;;;13.20;92.10;;;;;;5018617;28;20115;-79
2022/05/24 04:02:21;;;;;;;12.55;9.38;;;13.20;92.00;;;;;;5032197;28;20678;-77
2022/05/24 04:04:47;;;;;;;10.65;7.85;;;13.10;92.10;;;;;;5015634;28;20046;-79
2022/05/24 04:07:13;;;;;;;11.88;7.68;;;13.20;91.90;;;;;;4999568;28;20037;-79
2022/05/24 04:09:39;;;;;;;13.07;7.53;;;13.10;91.90;;;;;;5032083;28;20090;-76
2022/05/24 04:12:05;;;;;;;11.70;8.10;;;13.10;91.90;;;;;;5015685;28;20041;-79
2022/05/24 04:14:32;;;;;;;13.98;8.15;;;13.00;91.90;;;;;;5015820;28;20398;-81
2022/05/24 04:16:57;;;;;;;11.50;7.10;;;13.10;91.90;;;;;;5032288;28;20044;-82
2022/05/24 04:19:23;;;;;;;14.18;7.80;;;13.00;91.80;;;;;;5032378;28;20045;-80
2022/05/24 04:21:49;;;;;;;12.20;8.18;;;13.00;92.00;;;;;;5032393;28;20563;-77
2022/05/24 04:24:15;;;;;;;12.98;7.85;;;13.00;91.90;;;;;;5015695;28;20437;-82
2022/05/24 04:26:41;;;;;;;12.27;7.75;;;13.00;92.00;;;;;;5032091;28;20370;-79
2022/05/24 04:29:07;;;;;;;12.85;8.05;;;13.00;92.00;;;;;;5032022;28;20083;-81
2022/05/24 04:31:32;;;;;;;14.57;9.27;;;13.00;92.10;;;;;;5031955;28;20045;-78
2022/05/24 04:33:58;;;;;;;12.00;8.52;;;13.00;91.80;;;;;;5031901;28;20043;-78
2022/05/24 04:36:24;;;;;;;14.43;9.38;;;13.00;92.00;;;;;;5015670;28;20045;-77
2022/05/24 04:38:50;;;;;;;15.55;9.55;;;12.90;92.10;;;;;;5032171;28;20033;-78
2022/05/24 04:43:59;;;;;;;17.05;10.88;;;13.00;92.20;;;;;;5035775;28;20037;-77
2022/05/24 04:46:25;;;;;;;16.83;10.20;;;13.00;92.10;;;;;;5002997;28;20037;-80
2022/05/24 04:48:51;;;;;;;16.90;11.23;;;13.00;91.90;;;;;;5036223;28;20045;-76
2022/05/24 04:51:16;;;;;;;18.73;11.80;;;13.00;92.00;;;;;;5019493;28;20041;-80
2022/05/24 04:53:43;;;;;;;17.00;10.57;;;13.00;92.00;;;;;;5019021;28;20052;-78
2022/05/24 04:56:08;;;;;;;11.48;9.65;;;13.00;92.00;;;;;;5022371;28;20098;-77
2022/05/24 04:58:34;;;;;;;20.85;13.02;;;13.10;92.00;;;;;;5021962;28;20489;-80
2022/05/24 05:01:00;;;;;;;15.88;11.90;;;13.10;92.00;;;;;;5022290;28;20138;-76
2022/05/24 05:03:25;;;;;;;16.40;12.50;;;13.10;91.90;;;;;;5007717;28;20374;-78
2022/05/24 05:05:52;;;;;;;23.33;14.27;;;13.10;91.90;;;;;;5039975;28;20102;-81
2022/05/24 05:08:18;;;;;;;20.25;13.50;;;13.20;91.80;;;;;;5040146;28;20051;-76
2022/05/24 05:10:44;;;;;;;18.40;14.00;;;13.20;91.80;;;;;;5039563;28;20029;-80
2022/05/24 05:13:10;;;;;;;17.23;13.30;;;13.20;91.90;;;;;;5039248;28;20037;-75
2022/05/24 05:15:37;;;;;;;21.00;14.98;;;13.20;92.00;;;;;;5037061;28;20045;-82
2022/05/24 05:18:14;;;;;;;21.70;14.80;;;13.30;92.20;;;;;;5037712;28;20501;-78
2022/05/24 05:20:41;;;;;;;21.60;14.48;;;13.30;92.20;;;;;;5037616;28;20124;-76
2022/05/24 05:23:12;;;;;;;18.75;15.35;;;13.30;92.40;;;;;;5037665;28;20048;-77
2022/05/24 05:25:39;;;;;;;21.20;14.40;;;13.30;92.10;;;;;;5037678;28;20044;-75
2022/05/24 05:28:05;;;;;;;23.08;16.50;;;13.30;92.00;;;;;;5021249;28;20040;-79
2022/05/24 05:33:16;;;;;;;23.58;17.23;;;13.40;92.60;;;;;;5023325;28;20047;-78
2022/05/24 05:35:46;;;;;;;21.95;16.35;;;13.50;92.40;;;;;;5037508;28;20053;-83
2022/05/24 05:38:12;;;;;;;22.27;16.60;;;13.50;92.40;;;;;;5037205;28;20040;-79
2022/05/24 05:40:39;;;;;;;27.25;18.40;;;13.50;92.50;;;;;;5037335;28;20149;-78
2022/05/24 05:43:04;;;;;;;26.15;18.25;;;13.50;93.10;;;;;;5037016;28;20086;-80
2022/05/24 05:45:30;;;;;;;21.90;16.90;;;13.50;93.10;;;;;;5020895;28;20044;-77
2022/05/24 05:47:56;;;;;;;28.63;16.52;;;13.50;93.30;;;;;;5037431;28;20460;-80
2022/05/24 05:50:22;;;;;;;27.88;17.13;;;13.50;93.00;;;;;;5020961;28;20135;-79
2022/05/24 05:52:49;;;;;;;30.15;17.45;;;13.60;93.00;;;;;;5021241;28;20043;-77
2022/05/24 05:55:14;;;;;;;23.25;17.95;;;13.60;93.10;;;;;;5021485;28;20105;-75
2022/05/24 05:57:40;;;;;;;22.60;14.10;;;13.60;93.60;;;;;;5035213;28;20392;-79
2022/05/24 06:00:08;;;;;;;20.45;15.85;;;13.60;93.60;;;;;;5022683;28;20049;-79
2022/05/24 06:02:35;;;;;;;20.48;15.02;;;13.70;93.30;;;;;;5036536;28;20389;-80
2022/05/24 06:05:01;;;;;;;20.08;12.77;;;13.70;93.10;;;;;;5021039;28;20044;-75
2022/05/24 06:07:27;;;;;;;15.65;10.32;;;13.80;93.00;;;;;;5041889;28;20451;-77
2022/05/24 06:09:53;;;;;;;15.52;9.63;;;13.80;93.30;;;;;;5026003;28;20174;-78
2022/05/24 06:12:19;;;;;;;14.02;7.65;;;13.80;93.10;;;;;;5041986;28;20044;-81
2022/05/24 06:14:45;;;;;;;11.80;7.18;;;13.80;93.20;;;;;;5037655;28;20568;-81
2022/05/24 06:17:11;;;;;;;12.13;6.88;;;13.80;93.10;;;;;;5024615;28;20128;-81
2022/05/24 06:19:37;;;;;;;10.55;6.30;;;13.90;92.90;;;;;;5044883;28;20082;-79
2022/05/24 06:22:04;;;;;;;7.22;4.00;;;13.90;92.60;;;;;;5040896;28;20496;-76
2022/05/24 06:24:30;;;;;;;7.78;5.03;;;14.00;92.50;;;;;;5028795;28;20135;-77
2022/05/24 06:26:56;;;;;;;8.32;4.90;;;13.90;92.30;;;;;;5027749;28;20120;-79
2022/05/24 06:29:23;;;;;;;8.57;4.80;;;13.90;92.10;;;;;;5023839;28;20717;-82
2022/05/24 06:31:49;;;;;;;5.70;4.47;;;13.80;92.00;;;;;;5043748;28;20049;-78
2022/05/24 06:34:15;;;;;;;8.80;4.38;;;13.80;92.30;;;;;;5040722;28;20045;-79
2022/05/24 06:36:41;;;;;;;8.52;4.82;;;13.90;92.00;;;;;;5026467;28;20067;-81
2022/05/24 06:39:07;;;;;;;20.05;5.88;;;14.00;91.60;;;;;;5030129;28;20102;-77
2022/05/24 06:41:32;;;;;;;7.38;5.05;;;13.90;91.50;;;;;;5043360;28;20036;-79
2022/05/24 06:43:58;;;;;;;7.55;4.80;;;13.90;91.90;;;;;;5025929;28;20097;-77
2022/05/24 06:46:24;;;;;;;9.23;5.30;;;13.90;91.80;;;;;;5042685;28;20381;-79
2022/05/24 06:48:50;;;;;;;10.35;5.40;;;13.90;91.90;;;;;;5026394;28;20044;-83
2022/05/24 06:51:19;;;;;;;9.93;5.55;;;14.00;91.80;;;;;;4984557;28;20556;-82
2022/05/24 06:53:47;;;;;;;10.60;5.93;;;14.00;91.90;;;;;;5042232;28;20608;-80
2022/05/24 06:56:13;;;;;;;7.35;5.50;;;14.00;91.40;;;;;;5022990;28;20059;-84
2022/05/24 06:58:39;;;;;;;9.77;6.82;;;14.10;91.00;;;;;;5021497;28;20052;-83
2022/05/24 07:03:52;;;;;;;16.13;8.10;;;14.20;90.20;;;;;;5038767;28;20131;-78
2022/05/24 07:06:19;;;;;;;10.35;6.45;;;14.10;89.60;;;;;;5005640;28;20143;-78
2022/05/24 07:08:46;;;;;;;8.57;6.47;;;14.10;89.70;;;;;;5041115;28;20147;-80
2022/05/24 07:11:13;;;;;;;10.48;6.95;;;14.00;89.60;;;;;;5024279;28;21094;-80
2022/05/24 07:13:39;;;;;;;12.27;7.53;;;14.10;89.60;;;;;;5038884;28;20036;-79
2022/05/24 07:16:07;;;;;;;10.65;6.82;;;14.20;89.20;;;;;;5027526;28;20040;-79
2022/05/24 07:18:33;;;;;;;15.05;7.50;;;14.10;89.20;;;;;;5026984;28;20056;-78
2022/05/24 07:20:59;;;;;;;12.00;8.27;;;14.10;89.20;;;;;;5022582;28;20048;-79
2022/05/24 07:23:25;;;;;;;9.95;7.30;;;14.10;89.10;;;;;;5023209;28;20047;-85
2022/05/24 07:25:52;;;;;;;10.68;8.25;;;14.20;89.00;;;;;;5022943;28;20417;-80
2022/05/24 07:28:19;;;;;;;7.75;6.78;;;14.30;88.90;;;;;;5025344;28;20373;-78
2022/05/24 07:30:47;;;;;;;11.68;6.78;;;14.20;88.80;;;;;;5039527;28;20060;-79
2022/05/24 07:33:13;;;;;;;11.10;8.15;;;14.30;88.70;;;;;;5038448;28;20052;-82
2022/05/24 07:35:40;;;;;;;10.00;6.80;;;14.30;88.50;;;;;;5037237;28;20048;-77
2022/05/24 07:38:07;;;;;;;8.68;6.25;;;14.40;88.60;;;;;;5038309;28;20106;-83
2022/05/24 07:46:06;;;;;;;14.35;8.05;;;14.50;87.90;;;;;;5024495;28;20466;-79
2022/05/24 07:48:34;;;;;;;6.13;5.30;;;14.50;87.70;;;;;;5040301;28;20478;-80
2022/05/24 07:51:00;;;;;;;9.07;6.57;;;14.60;87.80;;;;;;5039656;28;20095;-77
2022/05/24 07:53:26;;;;;;;9.07;5.60;;;14.60;87.60;;;;;;5038849;28;20036;-78
2022/05/24 07:55:54;;;;;;;7.75;4.68;;;14.60;87.60;;;;;;5040105;28;20069;-80
2022/05/24 07:58:20;;;;;;;7.50;4.85;;;14.50;85.40;;;;;;5040820;28;20664;-77
2022/05/24 08:00:46;;;;;;;8.73;5.00;;;14.50;85.20;;;;;;5037938;28;20132;-80
2022/05/24 08:03:12;;;;;;;6.72;4.82;;;14.40;85.20;;;;;;5039976;28;20461;-81
2022/05/24 08:05:38;;;;;;;7.70;4.80;;;14.30;85.60;;;;;;5036590;28;20119;-80
2022/05/24 08:08:06;;;;;;;6.68;5.13;;;14.30;85.50;;;;;;5035970;28;20043;-80
2022/05/24 08:10:33;;;;;;;5.85;4.35;;;14.20;85.60;;;;;;5035421;28;20102;-78
2022/05/24 08:12:58;;;;;;;8.65;4.63;;;14.20;85.40;;;;;;5035576;28;20049;-78
2022/05/24 08:15:25;;;;;;;6.32;3.85;;;14.10;85.00;;;;;;5018718;28;20453;-79
2022/05/24 08:17:51;;;;;;;8.52;4.22;;;14.20;85.00;;;;;;5020893;28;20129;-81
2022/05/24 08:20:18;;;;;;;6.80;4.45;;;14.20;85.20;;;;;;5021857;28;20091;-82
2022/05/24 08:22:45;;;;;;;4.50;3.25;;;14.20;85.30;;;;;;5038624;28;20523;-82
2022/05/24 08:25:12;;;;;;;5.78;4.35;;;14.20;84.20;;;;;;5022115;28;20144;-80
2022/05/24 08:27:38;;;;;;;8.45;4.82;;;14.20;84.40;;;;;;5022056;28;20041;-78
2022/05/24 08:30:06;;;;;;;14.70;5.72;;;14.20;85.20;;;;;;5038833;28;20033;-82
2022/05/24 08:32:33;;;;;;;8.07;4.68;;;14.10;86.00;;;;;;5022488;28;20712;-81
2022/05/24 08:35:01;;;;;;;9.02;6.10;;;14.00;86.70;;;;;;5039470;28;20044;-81
2022/05/24 08:37:29;;;;;;;8.52;5.65;;;13.80;87.40;;;;;;5022990;28;20040;-76
2022/05/24 08:39:57;;;;;;;9.98;5.57;;;13.80;88.10;;;;;;5007026;28;20155;-77
2022/05/24 08:42:48;;;;;;;7.47;5.55;;;13.50;88.60;;;;;;5006224;28;20037;-81
2022/05/24 08:48:22;;;;;;;8.18;5.22;;;13.40;89.40;;;;;;5039107;28;20461;-78
2022/05/24 08:50:51;;;;;;;10.05;7.30;;;13.40;89.80;;;;;;5039118;28;20079;-79
2022/05/24 08:53:45;;;;;;;10.52;6.53;;;13.40;90.10;;;;;;5039198;28;20128;-79
2022/05/24 08:56:21;;;;;;;9.68;6.65;;;13.30;90.80;;;;;;5038492;28;20067;-81
2022/05/24 08:58:51;;;;;;;8.05;6.72;;;13.20;90.90;;;;;;5038686;28;20041;-81
2022/05/24 09:01:32;;;;;;;12.52;7.65;;;13.20;91.10;;;;;;5021387;28;20106;-84
2022/05/24 09:04:10;;;;;;;10.93;8.25;;;13.20;91.90;;;;;;5037976;28;20053;-79
2022/05/24 09:06:59;;;;;;;12.73;7.90;;;13.20;91.20;;;;;;5038820;28;20041;-81
2022/05/24 09:09:46;;;;;;;12.75;7.70;;;13.20;91.90;;;;;;5022183;28;20033;-80
2022/05/24 09:12:19;;;;;;;9.57;6.43;;;13.10;91.70;;;;;;5038173;28;20045;-78
2022/05/24 09:15:17;;;;;;;8.88;5.75;;;13.10;91.70;;;;;;5037810;28;20484;-79
2022/05/24 09:17:54;;;;;;;8.85;6.70;;;13.20;92.00;;;;;;4994967;28;20130;-79
2022/05/24 09:20:42;;;;;;;10.93;5.53;;;13.30;91.90;;;;;;5021141;28;20679;-81
2022/05/24 09:23:43;;;;;;;7.03;5.10;;;13.30;91.90;;;;;;5037583;28;20488;-80
2022/05/24 09:26:20;;;;;;;6.93;5.55;;;13.40;91.00;;;;;;5033433;28;20052;-79
2022/05/24 09:28:52;;;;;;;9.77;5.68;;;13.50;91.30;;;;;;5036147;28;20508;-79
2022/05/24 09:31:48;;;;;;;11.05;6.47;;;13.60;90.70;;;;;;5037549;28;20041;-81
2022/05/24 09:34:17;;;;;;;5.95;5.32;;;13.70;90.80;;;;;;5020913;28;20045;-78
2022/05/24 09:36:53;;;;;;;8.30;4.70;;;13.90;90.30;;;;;;5037406;28;20094;-79
2022/05/24 09:39:37;;;;;;;5.20;3.88;;;14.30;89.40;;;;;;5020869;28;20079;-80
2022/05/24 09:42:04;;;;;;;10.60;4.85;;;14.60;88.30;;;;;;5037468;28;20044;-77
2022/05/24 09:45:02;;;;;;;4.47;3.78;;;14.80;86.60;;;;;;5037127;28;20041;-77
2022/05/24 09:47:50;;;;;;;4.32;3.05;;;15.00;86.40;;;;;;5037187;28;20043;-77
2022/05/24 09:50:22;;;;;;;6.25;4.10;;;15.00;84.00;;;;;;5037133;28;20131;-81
2022/05/24 09:53:06;;;;;;;7.95;3.63;;;14.90;83.90;;;;;;5037501;28;20032;-78
2022/05/24 09:55:38;;;;;;;6.50;4.63;;;14.70;84.60;;;;;;5037002;28;20057;-80
2022/05/24 09:58:25;;;;;;;5.03;3.88;;;14.50;86.10;;;;;;5037172;28;20280;-78
2022/05/24 10:01:04;;;;;;;6.22;4.30;;;14.10;86.60;;;;;;5036976;28;20043;-81
2022/05/24 10:03:37;;;;;;;6.15;3.17;;;14.00;88.00;;;;;;5036904;28;20040;-83
2022/05/24 10:06:12;;;;;;;3.63;2.70;;;14.10;87.90;;;;;;5036796;28;20045;-80
2022/05/24 10:08:46;;;;;;;4.53;2.35;;;14.10;87.50;;;;;;5037370;28;20045;-77
2022/05/24 10:11:38;;;;;;;6.25;3.70;;;14.20;87.50;;;;;;5036882;28;20053;-80
2022/05/24 10:14:06;;;;;;;5.70;3.55;;;14.10;88.10;;;;;;5036648;28;20036;-80
2022/05/24 10:16:44;;;;;;;5.15;2.83;;;14.20;87.80;;;;;;5036852;28;20190;-81
2022/05/24 10:19:12;;;;;;;5.90;3.17;;;14.00;87.00;;;;;;5036773;28;20382;-81
2022/05/24 10:21:59;;;;;;;5.93;3.75;;;14.00;85.80;;;;;;5036320;28;20044;-80
2022/05/24 10:24:34;;;;;;;7.28;4.15;;;14.00;85.90;;;;;;5036509;28;20037;-79
2022/05/24 10:27:31;;;;;;;4.13;2.80;;;14.20;86.20;;;;;;5019902;28;20043;-81
2022/05/24 10:30:10;;;;;;;5.18;3.05;;;14.40;85.50;;;;;;5036288;28;20049;-78
2022/05/24 10:39:40;;;;;;;3.08;2.30;;;14.40;84.80;;;;;;5013379;28;20052;-77
2022/05/24 10:42:27;;;;;;;1.75;0.90;;;14.30;85.30;;;;;;5009236;28;20190;-80
2022/05/24 10:45:11;;;;;;;1.23;0.70;;;14.10;84.00;;;;;;5036082;28;20053;-78
2022/05/24 10:48:04;;;;;;;3.20;0.90;;;14.00;83.30;;;;;;5036459;28;20041;-82
2022/05/24 10:50:48;;;;;;;3.10;1.05;;;14.00;83.50;;;;;;5019785;28;20397;-78
2022/05/24 10:53:38;;;;;;;5.45;1.30;;;14.00;82.70;;;;;;5036023;28;20044;-76
2022/05/24 10:56:13;;;;;;;2.58;1.45;;;14.00;83.40;;;;;;5019527;28;20068;-78
2022/05/24 10:58:41;;;;;;;3.22;1.50;;;14.40;83.70;;;;;;5035933;28;20047;-78
2022/05/24 11:01:24;;;;;;;2.40;1.30;;;14.60;83.70;;;;;;5035859;28;20045;-80
2022/05/24 11:03:55;;;;;;;4.53;1.55;;;14.70;82.40;;;;;;5036070;28;20048;-77
2022/05/24 11:06:56;;;;;;;5.03;1.58;;;15.00;82.10;;;;;;5035656;28;20120;-79
2022/05/24 11:09:25;;;;;;;3.83;1.15;;;15.00;80.70;;;;;;5005448;28;20047;-81
2022/05/24 11:11:57;;;;;;;1.10;0.85;;;15.00;80.50;;;;;;5035532;28;20044;-81
2022/05/24 11:14:29;;;;;;;4.78;1.58;;;14.90;79.90;;;;;;5035492;28;20041;-82
2022/05/24 11:16:56;;;;;;;2.90;1.20;;;14.80;79.80;;;;;;5035381;28;20453;-80
2022/05/24 11:19:24;;;;;;;6.50;1.60;;;14.70;81.10;;;;;;5019048;28;20077;-76
2022/05/24 11:22:20;;;;;;;4.00;1.63;;;14.60;82.00;;;;;;5035821;28;20029;-77
2022/05/24 11:25:04;;;;;;;3.15;1.85;;;14.50;83.70;;;;;;5035667;28;20041;-78
2022/05/24 11:27:37;;;;;;;4.25;1.50;;;14.50;84.00;;;;;;5019289;28;20051;-80
2022/05/24 11:30:12;;;;;;;2.85;1.27;;;14.50;82.50;;;;;;5035531;28;20037;-80
2022/05/24 11:32:49;;;;;;;4.78;1.00;;;14.60;81.80;;;;;;5035486;28;20044;-79
2022/05/24 11:35:24;;;;;;;4.93;1.80;;;14.60;81.10;;;;;;5035203;28;20496;-81
2022/05/24 11:37:51;;;;;;;;;;;14.90;80.40;;;;;;5035879;28;20464;-81
2022/05/24 11:40:37;;;;;;;4.22;1.65;;;14.90;80.20;;;;;;5035024;28;19916;-81
2022/05/24 11:43:30;;;;;;;2.92;1.38;;;15.00;80.60;;;;;;5035061;28;20051;-82
2022/05/24 11:46:03;;;;;;;5.30;1.55;;;15.00;80.90;;;;;;5034923;28;20041;-76
2022/05/24 11:48:46;;;;;;;3.92;1.50;;;15.20;78.10;;;;;;5035078;28;20048;-79
2022/05/24 11:51:32;;;;;;;4.38;1.50;;;15.00;78.30;;;;;;5034639;28;20039;-77
2022/05/24 11:54:04;;;;;;;14.45;2.55;;;15.00;78.90;;;;;;5034964;28;20110;-80
2022/05/24 11:56:30;;;;;;;5.95;1.85;;;14.90;80.20;;;;;;5034956;28;20047;-77
2022/05/24 11:59:03;;;;;;;4.15;1.95;;;15.00;81.20;;;;;;5035289;28;20467;-79
2022/05/24 12:01:43;;;;;;;2.95;1.75;;;15.10;79.00;;;;;;5034908;28;20068;-79
2022/05/24 12:10:24;;;;;;;1.48;0.60;;;15.20;76.30;;;;;;5035106;28;20037;-78
2022/05/24 12:12:57;;;;;;;5.30;1.13;;;15.50;75.00;;;;;;5034915;28;20489;-79
2022/05/24 12:15:33;;;;;;;3.95;0.80;;;15.80;74.90;;;;;;5034933;28;20041;-80
2022/05/24 12:17:58;;;;;;;3.33;1.65;;;16.00;72.50;;;;;;5035052;28;20413;-79
2022/05/24 12:20:33;;;;;;;1.45;0.90;;;16.20;70.10;;;;;;5034678;28;20063;-77
2022/05/24 12:23:07;;;;;;;4.13;1.10;;;16.30;69.90;;;;;;5018280;28;20049;-77
2022/05/24 12:26:10;;;;;;;1.83;1.30;;;16.20;69.30;;;;;;5018237;28;20045;-78
2022/05/24 12:28:38;;;;;;;3.85;1.15;;;16.00;68.50;;;;;;5034921;28;20060;-78
2022/05/24 12:31:13;;;;;;;10.68;1.30;;;16.10;69.60;;;;;;5018169;28;20037;-78
2022/05/24 12:33:41;;;;;;;2.80;1.30;;;16.30;68.50;;;;;;5018218;28;20037;-79
2022/05/24 12:36:19;;;;;;;2.78;0.88;;;16.60;69.10;;;;;;5034571;28;20040;-80
2022/05/24 12:38:57;;;;;;;2.25;0.80;;;16.70;66.90;;;;;;5034578;28;20051;-78
2022/05/24 12:41:40;;;;;;;2.20;0.95;;;17.00;67.40;;;;;;5034498;28;20049;-80
2022/05/24 12:44:14;;;;;;;3.17;1.17;;;17.20;64.80;;;;;;5034488;28;20045;-79
2022/05/24 12:46:41;;;;;;;;;;;17.30;66.40;;;;;;5035135;28;20132;-83
2022/05/24 12:49:09;;;;;;;3.65;1.60;;;17.40;65.10;;;;;;5034650;28;20316;-79
2022/05/24 12:51:37;;;;;;;4.05;1.70;;;17.30;65.80;;;;;;5017929;28;20047;-81
2022/05/24 12:54:24;;;;;;;3.50;1.70;;;17.00;66.20;;;;;;5034262;28;20052;-76
2022/05/24 12:56:56;;;;;;;3.92;1.65;;;16.70;67.40;;;;;;5018038;28;20064;-77
2022/05/24 12:59:30;;;;;;;2.92;1.35;;;16.70;68.30;;;;;;5034600;28;20045;-80
2022/05/24 13:01:56;;;;;;;2.47;1.30;;;16.90;67.40;;;;;;5034384;28;20040;-81
2022/05/24 13:04:27;;;;;;;5.20;1.65;;;16.70;66.30;;;;;;5036774;28;20033;-78
2022/05/24 13:06:54;;;;;;;4.95;1.50;;;16.70;67.60;;;;;;5038136;28;20052;-80
2022/05/24 13:09:29;;;;;;;3.08;1.83;;;16.60;67.40;;;;;;5038113;28;20041;-78
2022/05/24 13:12:07;;;;;;;5.88;2.45;;;16.60;68.20;;;;;;5037998;28;20447;-78
2022/05/24 13:14:57;;;;;;;3.47;1.65;;;16.70;69.50;;;;;;5021384;28;20045;-79
2022/05/24 13:17:27;;;;;;;8.57;3.15;;;16.70;66.70;;;;;;5037950;28;20045;-78
2022/05/24 13:19:55;;;;;;;5.90;1.80;;;16.70;67.90;;;;;;5037679;28;20048;-78
2022/05/24 13:22:24;;;;;;;3.25;1.98;;;16.80;68.40;;;;;;5021556;28;20382;-77
2022/05/24 13:25:00;;;;;;;2.95;1.50;;;16.90;67.00;;;;;;5037716;28;20320;-77
2022/05/24 13:27:46;;;;;;;2.63;1.33;;;17.00;66.90;;;;;;5021292;28;20120;-76
2022/05/24 13:35:50;;;;;;;6.65;2.38;;;16.60;67.20;;;;;;5037570;28;20075;-81
2022/05/24 13:38:24;;;;;;;5.10;1.77;;;16.40;66.80;;;;;;5020748;28;20048;-73
2022/05/24 13:40:52;;;;;;;;;;;16.40;67.30;;;;;;5037675;28;20052;-76
2022/05/24 13:44:04;;;;;;;3.90;1.98;;;16.50;67.10;;;;;;5037665;28;19964;-79
2022/05/24 13:46:29;;;;;;;5.53;1.90;;;16.60;67.20;;;;;;5001580;28;20060;-78
2022/05/24 13:48:58;;;;;;;4.22;2.40;;;16.70;66.70;;;;;;5020642;28;20041;-81
2022/05/24 13:51:27;;;;;;;6.07;3.30;;;16.70;67.40;;;;;;5020512;28;20551;-77
2022/05/24 13:53:54;;;;;;;3.67;1.92;;;16.90;68.00;;;;;;5037101;28;20091;-79